createdAt,value
2023-04-04T00:02:01.895Z,5.83
2023-04-04T00:05:09.790Z,5.97
2023-04-04T00:08:13.201Z,6.88
2023-04-04T00:11:16.376Z,5.50
2023-04-04T00:14:20.052Z,10.68
2023-04-04T00:17:23.283Z,5.88
2023-04-04T00:20:26.743Z,6.13
2023-04-04T00:23:29.997Z,6.13
2023-04-04T00:26:34.474Z,7.38
2023-04-04T00:29:37.951Z,7.05
2023-04-04T00:32:42.145Z,7.00
2023-04-04T00:35:48.085Z,6.95
2023-04-04T00:38:51.926Z,5.55
2023-04-04T00:41:55.424Z,7.13
2023-04-04T00:44:58.739Z,7.57
2023-04-04T00:48:03.347Z,5.68
2023-04-04T00:51:07.188Z,7.05
2023-04-04T00:54:10.479Z,5.72
2023-04-04T00:57:13.913Z,5.43
2023-04-04T01:00:17.446Z,5.18
2023-04-04T01:03:21.936Z,5.93
2023-04-04T01:06:26.546Z,6.68
2023-04-04T01:09:30.480Z,6.18
2023-04-04T01:12:35.557Z,5.77
2023-04-04T01:15:39.098Z,6.85
2023-04-04T01:18:43.748Z,6.13
2023-04-04T01:21:48.539Z,6.95
2023-04-04T01:24:55.049Z,7.93
2023-04-04T01:28:02.427Z,7.00
2023-04-04T01:31:09.366Z,6.93
2023-04-04T01:34:42.766Z,5.27
2023-04-04T01:38:01.229Z,5.85
2023-04-04T01:41:08.291Z,6.43
2023-04-04T01:44:15.964Z,6.00
2023-04-04T01:47:19.418Z,6.20
2023-04-04T01:50:23.777Z,5.32
2023-04-04T01:53:27.352Z,5.38
2023-04-04T01:56:30.571Z,6.13
2023-04-04T01:59:34.082Z,5.82
2023-04-04T02:02:37.892Z,6.68
2023-04-04T02:05:41.139Z,6.60
2023-04-04T02:08:46.078Z,5.20
2023-04-04T02:11:53.205Z,6.38
2023-04-04T02:14:56.612Z,8.27
2023-04-04T02:18:01.901Z,6.88
2023-04-04T02:21:05.760Z,6.75
2023-04-04T02:24:09.167Z,6.13
2023-04-04T02:27:12.295Z,5.32
2023-04-04T02:30:15.843Z,6.18
2023-04-04T02:33:19.455Z,10.25
2023-04-04T02:36:24.098Z,7.77
2023-04-04T02:39:29.234Z,8.25
2023-04-04T02:42:33.468Z,7.45
2023-04-04T02:45:36.773Z,6.53
2023-04-04T02:48:52.191Z,3.85
2023-04-04T02:51:56.151Z,6.15
2023-04-04T02:55:00.254Z,5.90
2023-04-04T02:58:09.472Z,5.53
2023-04-04T03:01:12.874Z,6.60
2023-04-04T03:04:16.279Z,6.65
2023-04-04T03:07:19.825Z,6.17
2023-04-04T03:10:27.958Z,5.93
2023-04-04T03:13:31.241Z,7.55
2023-04-04T03:16:34.697Z,6.63
2023-04-04T03:19:38.213Z,6.57
2023-04-04T03:22:42.072Z,6.32
2023-04-04T03:25:45.938Z,7.15
2023-04-04T03:28:49.246Z,6.05
2023-04-04T03:31:55.174Z,5.45
2023-04-04T03:34:58.459Z,7.47
2023-04-04T03:38:05.232Z,6.50
2023-04-04T03:41:10.745Z,5.57
2023-04-04T03:44:14.019Z,6.75
2023-04-04T03:47:17.222Z,6.20
2023-04-04T03:50:21.458Z,6.57
2023-04-04T03:53:28.769Z,6.90
2023-04-04T03:56:32.778Z,6.18
2023-04-04T03:59:40.358Z,6.25
2023-04-04T04:02:43.821Z,7.57
2023-04-04T04:05:47.536Z,7.78
2023-04-04T04:08:50.854Z,5.73
2023-04-04T04:11:54.133Z,7.38
2023-04-04T04:14:57.371Z,6.80
2023-04-04T04:18:01.002Z,7.73
2023-04-04T04:21:05.436Z,7.35
2023-04-04T04:24:10.603Z,8.43
2023-04-04T04:27:14.132Z,7.22
2023-04-04T04:30:17.527Z,7.00
2023-04-04T04:33:29.524Z,7.00
2023-04-04T04:36:36.798Z,8.88
2023-04-04T04:40:02.119Z,8.60
2023-04-04T04:43:14.864Z,6.90
2023-04-04T04:46:18.330Z,6.75
2023-04-04T04:49:22.067Z,5.57
2023-04-04T04:52:29.266Z,6.43
2023-04-04T04:55:32.670Z,7.47
2023-04-04T04:58:42.128Z,5.00
2023-04-04T05:01:47.242Z,7.97
2023-04-04T05:04:52.383Z,8.25
2023-04-04T05:07:55.646Z,7.68
2023-04-04T05:10:58.980Z,7.60
2023-04-04T05:14:08.240Z,6.15
2023-04-04T05:17:17.274Z,7.25
2023-04-04T05:20:20.932Z,6.83
2023-04-04T05:23:26.586Z,6.63
2023-04-04T05:26:30.458Z,7.53
2023-04-04T05:29:34.627Z,7.88
2023-04-04T05:32:39.510Z,7.68
2023-04-04T05:35:47.845Z,7.03
2023-04-04T05:38:52.598Z,6.05
2023-04-04T05:41:58.662Z,5.93
2023-04-04T05:45:02.582Z,10.15
2023-04-04T05:48:07.202Z,9.43
2023-04-04T05:51:17.977Z,7.00
2023-04-04T05:54:38.112Z,6.30
2023-04-04T05:57:51.905Z,7.60
2023-04-04T06:01:01.874Z,10.32
2023-04-04T06:04:06.862Z,8.13
2023-04-04T06:07:10.747Z,6.43
2023-04-04T06:10:14.360Z,6.53
2023-04-04T06:13:25.608Z,6.97
2023-04-04T06:16:36.386Z,7.50
2023-04-04T06:19:40.681Z,8.90
2023-04-04T06:22:44.032Z,6.20
2023-04-04T06:25:48.700Z,7.45
2023-04-04T06:28:55.917Z,8.35
2023-04-04T06:32:11.304Z,7.13
2023-04-04T06:35:20.069Z,7.30
2023-04-04T06:38:33.431Z,9.40
2023-04-04T06:41:40.929Z,7.15
2023-04-04T06:44:44.433Z,6.43
2023-04-04T06:47:51.957Z,6.78
2023-04-04T06:50:55.588Z,6.35
2023-04-04T06:54:01.883Z,6.67
2023-04-04T06:57:06.629Z,9.23
2023-04-04T07:00:11.101Z,11.60
2023-04-04T07:03:20.550Z,12.45
2023-04-04T07:06:25.880Z,6.80
2023-04-04T07:09:29.875Z,10.68
2023-04-04T07:12:33.401Z,14.32
2023-04-04T07:15:37.101Z,7.27
2023-04-04T07:18:40.646Z,8.75
2023-04-04T07:21:44.948Z,9.90
2023-04-04T07:24:48.671Z,7.73
2023-04-04T07:28:02.325Z,6.63
2023-04-04T07:31:09.224Z,8.23
2023-04-04T07:34:12.542Z,9.05
2023-04-04T07:37:16.125Z,11.68
2023-04-04T07:40:19.575Z,7.25
2023-04-04T07:43:22.981Z,8.40
2023-04-04T07:46:31.589Z,9.13
2023-04-04T07:49:35.365Z,6.78
2023-04-04T07:52:38.983Z,7.68
2023-04-04T07:55:42.340Z,9.87
2023-04-04T07:58:45.871Z,9.32
2023-04-04T08:01:49.191Z,7.95
2023-04-04T08:04:55.258Z,7.75
2023-04-04T08:07:58.618Z,9.07
2023-04-04T08:11:02.695Z,10.68
2023-04-04T08:14:07.499Z,8.77
2023-04-04T08:17:10.791Z,9.10
2023-04-04T08:20:15.580Z,11.57
2023-04-04T08:23:18.932Z,8.73
2023-04-04T08:26:22.512Z,8.50
2023-04-04T08:29:26.892Z,7.35
2023-04-04T08:32:30.549Z,7.72
2023-04-04T08:35:33.878Z,9.77
2023-04-04T08:38:37.348Z,8.38
2023-04-04T08:41:43.314Z,8.88
2023-04-04T08:44:48.019Z,7.65
2023-04-04T08:47:54.193Z,9.20
2023-04-04T08:50:59.836Z,9.32
2023-04-04T08:54:03.764Z,8.73
2023-04-04T08:57:08.512Z,8.43
2023-04-04T09:00:16.942Z,7.88
2023-04-04T09:03:27.762Z,11.73
2023-04-04T09:06:32.189Z,8.45
2023-04-04T09:09:38.039Z,8.48
2023-04-04T09:12:45.695Z,8.10
2023-04-04T09:15:51.786Z,8.82
2023-04-04T09:18:55.183Z,8.83
2023-04-04T09:21:58.970Z,8.57
2023-04-04T09:25:02.866Z,9.23
2023-04-04T09:28:06.308Z,9.53
2023-04-04T09:31:10.158Z,9.13
2023-04-04T09:34:15.028Z,8.50
2023-04-04T09:37:18.702Z,11.57
2023-04-04T09:40:24.175Z,9.50
2023-04-04T09:43:30.928Z,10.23
2023-04-04T09:46:36.726Z,10.13
2023-04-04T09:49:40.728Z,8.43
2023-04-04T09:52:44.555Z,8.02
2023-04-04T09:55:54.913Z,8.63
2023-04-04T09:59:03.692Z,9.33
2023-04-04T10:02:09.885Z,7.53
2023-04-04T10:05:14.652Z,11.32
2023-04-04T10:08:21.540Z,9.45
2023-04-04T10:11:36.054Z,9.07
2023-04-04T10:14:39.582Z,9.13
2023-04-04T10:17:43.574Z,9.50
2023-04-04T10:20:49.078Z,10.00
2023-04-04T10:23:53.177Z,10.98
2023-04-04T10:26:56.925Z,9.05
2023-04-04T10:30:01.640Z,12.97
2023-04-04T10:33:15.419Z,11.02
2023-04-04T10:36:27.645Z,7.50
2023-04-04T10:39:35.935Z,9.07
2023-04-04T10:42:49.992Z,9.95
2023-04-04T10:45:54.744Z,8.32
2023-04-04T10:49:00.351Z,10.82
2023-04-04T10:52:04.225Z,9.00
2023-04-04T10:55:09.804Z,12.13
2023-04-04T10:58:13.692Z,9.65
2023-04-04T11:01:21.084Z,10.77
2023-04-04T11:04:38.237Z,10.27
2023-04-04T11:07:57.209Z,10.68
2023-04-04T11:11:21.724Z,15.00
2023-04-04T11:14:30.997Z,8.80
2023-04-04T11:17:49.956Z,10.02
2023-04-04T11:20:55.226Z,12.05
2023-04-04T11:24:13.560Z,8.43
2023-04-04T11:27:16.893Z,9.90
2023-04-04T11:30:20.390Z,8.00
2023-04-04T11:33:30.338Z,14.67
2023-04-04T11:36:36.648Z,11.90
2023-04-04T11:39:57.374Z,9.70
2023-04-04T11:43:03.682Z,12.32
2023-04-04T11:46:09.158Z,11.07
2023-04-04T11:49:13.796Z,11.63
2023-04-04T11:52:18.776Z,11.25
2023-04-04T11:55:22.894Z,7.70
2023-04-04T11:58:28.328Z,9.70
2023-04-04T12:01:32.037Z,8.15
2023-04-04T12:04:37.376Z,6.97
2023-04-04T12:07:41.621Z,8.80
2023-04-04T12:10:48.363Z,8.27
2023-04-04T12:13:51.669Z,9.40
2023-04-04T12:16:57.519Z,9.20
2023-04-04T12:20:00.923Z,7.80
2023-04-04T12:23:04.918Z,9.98
2023-04-04T12:26:09.658Z,10.30
2023-04-04T12:29:15.002Z,12.25
2023-04-04T12:32:18.452Z,11.65
2023-04-04T12:35:22.678Z,9.73
2023-04-04T12:38:26.882Z,11.38
2023-04-04T12:41:30.724Z,10.50
2023-04-04T12:44:39.542Z,9.30
2023-04-04T12:48:09.149Z,9.55
2023-04-04T12:51:12.565Z,7.82
2023-04-04T12:54:29.720Z,11.75
2023-04-04T12:57:37.510Z,9.33
2023-04-04T13:00:48.460Z,11.30
2023-04-04T13:03:53.166Z,15.82
2023-04-04T13:07:02.456Z,10.73
2023-04-04T13:10:09.210Z,11.45
2023-04-04T13:13:31.613Z,12.23
2023-04-04T13:16:37.192Z,13.07
2023-04-04T13:19:40.985Z,15.38
2023-04-04T13:22:45.019Z,14.45
2023-04-04T13:25:48.516Z,15.75
2023-04-04T13:28:51.917Z,12.73
2023-04-04T13:31:57.908Z,9.35
2023-04-04T13:35:01.228Z,9.52
2023-04-04T13:38:04.618Z,11.43
2023-04-04T13:41:08.143Z,8.25
2023-04-04T13:44:13.660Z,11.30
2023-04-04T13:47:17.168Z,10.68
2023-04-04T13:50:22.270Z,10.52
2023-04-04T13:53:26.425Z,8.43
2023-04-04T13:56:29.776Z,8.82
2023-04-04T13:59:33.243Z,8.17
2023-04-04T14:02:37.102Z,9.95
2023-04-04T14:05:40.903Z,7.07
2023-04-04T14:08:45.607Z,8.53
2023-04-04T14:11:49.192Z,9.77
2023-04-04T14:14:52.403Z,8.88
2023-04-04T14:17:55.826Z,7.57
2023-04-04T14:20:59.199Z,7.38
2023-04-04T14:24:02.982Z,7.97
2023-04-04T14:27:06.636Z,10.40
2023-04-04T14:30:10.885Z,9.50
2023-04-04T14:33:16.832Z,6.90
2023-04-04T14:36:21.813Z,8.95
2023-04-04T14:39:25.211Z,5.60
2023-04-04T14:42:28.707Z,8.73
2023-04-04T14:45:33.166Z,6.47
2023-04-04T14:48:36.431Z,5.88
2023-04-04T14:51:39.862Z,10.50
2023-04-04T14:54:43.442Z,5.75
2023-04-04T14:58:01.270Z,8.68
2023-04-04T15:01:07.117Z,5.77
2023-04-04T15:04:11.689Z,7.35
2023-04-04T15:07:15.160Z,5.68
2023-04-04T15:10:18.686Z,6.27
2023-04-04T15:13:22.976Z,10.00
2023-04-04T15:16:28.340Z,7.03
2023-04-04T15:19:31.855Z,6.05
2023-04-04T15:22:36.052Z,7.70
2023-04-04T15:25:39.470Z,6.70
2023-04-04T15:28:42.845Z,5.43
2023-04-04T15:31:47.721Z,4.93
2023-04-04T15:34:53.526Z,4.97
2023-04-04T15:37:56.773Z,6.57
2023-04-04T15:41:00.048Z,5.40
2023-04-04T15:44:03.840Z,5.20
2023-04-04T15:47:07.296Z,4.72
2023-04-04T15:50:11.935Z,3.83
2023-04-04T15:53:15.334Z,6.35
2023-04-04T15:56:18.538Z,5.82
2023-04-04T15:59:21.735Z,5.80
2023-04-04T16:02:25.417Z,5.23
2023-04-04T16:05:28.828Z,3.85
2023-04-04T16:08:32.282Z,7.40
2023-04-04T16:11:35.629Z,6.17
2023-04-04T16:14:38.899Z,5.40
2023-04-04T16:17:42.551Z,5.55
2023-04-04T16:20:45.848Z,4.40
2023-04-04T16:23:49.075Z,3.85
2023-04-04T16:26:52.292Z,5.15
2023-04-04T16:29:55.570Z,8.82
2023-04-04T16:32:58.847Z,5.97
2023-04-04T16:36:04.937Z,7.22
2023-04-04T16:39:08.208Z,6.43
2023-04-04T16:42:11.485Z,4.03
2023-04-04T16:45:14.746Z,4.82
2023-04-04T16:48:18.495Z,4.38
2023-04-04T16:51:21.792Z,5.80
2023-04-04T16:54:25.013Z,5.30
2023-04-04T16:57:28.536Z,5.63
2023-04-04T17:00:33.430Z,5.57
2023-04-04T17:03:36.780Z,6.77
2023-04-04T17:06:40.123Z,4.00
2023-04-04T17:09:43.504Z,6.05
2023-04-04T17:12:47.278Z,4.90
2023-04-04T17:15:50.940Z,4.97
2023-04-04T17:18:54.523Z,5.85
2023-04-04T17:21:58.728Z,5.88
2023-04-04T17:25:02.167Z,6.57
2023-04-04T17:28:06.388Z,4.40
2023-04-04T17:31:09.854Z,7.10
2023-04-04T17:34:13.148Z,6.13
2023-04-04T17:37:16.268Z,5.85
2023-04-04T17:40:19.828Z,5.00
2023-04-04T17:43:23.030Z,6.40
2023-04-04T17:46:26.420Z,4.75
2023-04-04T17:49:30.520Z,4.15
2023-04-04T17:52:34.566Z,4.15
2023-04-04T17:55:39.848Z,5.03
2023-04-04T17:58:43.400Z,4.82
2023-04-04T18:01:47.870Z,6.15
2023-04-04T18:04:52.058Z,7.67
2023-04-04T18:07:56.024Z,4.85
2023-04-04T18:10:59.434Z,6.25
2023-04-04T18:14:03.935Z,7.73
2023-04-04T18:17:07.190Z,5.28
2023-04-04T18:20:14.282Z,5.97
2023-04-04T18:23:22.720Z,8.57
2023-04-04T18:26:26.264Z,4.93
2023-04-04T18:29:34.734Z,5.75
2023-04-04T18:32:38.423Z,5.00
2023-04-04T18:35:41.743Z,4.87
2023-04-04T18:38:47.603Z,5.05
2023-04-04T18:41:51.741Z,5.57
2023-04-04T18:44:55.653Z,5.27
2023-04-04T18:47:59.188Z,5.20
2023-04-04T18:51:02.628Z,5.43
2023-04-04T18:54:06.546Z,3.55
2023-04-04T18:57:10.436Z,4.82
2023-04-04T19:00:14.491Z,6.22
2023-04-04T19:03:18.035Z,5.43
2023-04-04T19:06:28.534Z,6.17
2023-04-04T19:09:32.604Z,6.38
2023-04-04T19:12:35.913Z,6.50
2023-04-04T19:15:39.752Z,4.40
2023-04-04T19:18:43.845Z,4.97
2023-04-04T19:21:47.867Z,5.18
2023-04-04T19:24:51.312Z,5.80
2023-04-04T19:27:54.811Z,5.18
2023-04-04T19:30:58.510Z,4.13
2023-04-04T19:34:03.636Z,4.90
2023-04-04T19:37:07.862Z,6.93
2023-04-04T19:40:16.495Z,5.55
2023-04-04T19:43:23.053Z,4.85
2023-04-04T19:46:29.610Z,5.20
2023-04-04T19:49:35.417Z,2.85
2023-04-04T19:52:39.069Z,4.25
2023-04-04T19:55:42.676Z,5.70
2023-04-04T19:58:55.121Z,5.30
2023-04-04T20:02:00.810Z,5.07
2023-04-04T20:05:44.332Z,4.72
2023-04-04T20:08:51.575Z,5.93
2023-04-04T20:11:55.062Z,5.28
2023-04-04T20:15:00.750Z,5.28
2023-04-04T20:18:06.591Z,4.80
2023-04-04T20:21:11.675Z,4.20
2023-04-04T20:24:17.800Z,7.22
2023-04-04T20:27:24.232Z,4.70
2023-04-04T20:30:28.064Z,4.63
2023-04-04T20:33:36.842Z,6.65
2023-04-04T20:36:42.983Z,3.58
2023-04-04T20:39:54.238Z,5.10
2023-04-04T20:42:58.039Z,5.22
2023-04-04T20:46:01.240Z,6.18
2023-04-04T20:49:07.112Z,4.63
2023-04-04T20:52:23.623Z,6.00
2023-04-04T20:55:28.839Z,3.53
2023-04-04T20:58:32.243Z,5.45
2023-04-04T21:01:35.876Z,4.57
2023-04-04T21:04:41.430Z,5.10
2023-04-04T21:07:44.715Z,8.07
2023-04-04T21:10:51.939Z,4.97
2023-04-04T21:13:55.640Z,5.07
2023-04-04T21:16:58.857Z,6.30
2023-04-04T21:20:02.160Z,5.67
2023-04-04T21:23:07.313Z,4.10
2023-04-04T21:26:18.476Z,5.80
2023-04-04T21:29:26.202Z,8.23
2023-04-04T21:32:29.542Z,8.32
2023-04-04T21:35:48.726Z,5.75
2023-04-04T21:38:53.102Z,6.53
2023-04-04T21:42:07.958Z,5.20
2023-04-04T21:45:12.257Z,4.93
2023-04-04T21:48:15.456Z,5.47
2023-04-04T21:51:18.892Z,3.63
2023-04-04T21:54:22.756Z,4.15
2023-04-04T21:57:26.128Z,4.40
2023-04-04T22:00:29.342Z,5.30
2023-04-04T22:03:32.497Z,6.00
2023-04-04T22:06:36.436Z,4.82
2023-04-04T22:09:43.019Z,4.63
2023-04-04T22:12:49.780Z,5.87
2023-04-04T22:15:52.913Z,5.57
2023-04-04T22:18:56.904Z,4.45
2023-04-04T22:22:00.205Z,7.10
2023-04-04T22:25:03.929Z,5.53
2023-04-04T22:28:08.519Z,4.13
2023-04-04T22:31:12.283Z,4.30
2023-04-04T22:34:16.273Z,8.68
2023-04-04T22:37:21.617Z,5.13
2023-04-04T22:40:25.583Z,5.10
2023-04-04T22:43:28.751Z,5.07
2023-04-04T22:46:32.257Z,5.60
2023-04-04T22:49:38.680Z,5.22
2023-04-04T22:52:46.166Z,7.53
2023-04-04T22:55:49.289Z,6.57
2023-04-04T22:58:52.895Z,6.45
2023-04-04T23:01:56.524Z,6.00
2023-04-04T23:05:00.013Z,5.95
2023-04-04T23:08:03.786Z,6.93
2023-04-04T23:11:07.002Z,5.88
2023-04-04T23:14:15.215Z,5.97
2023-04-04T23:17:18.633Z,5.35
2023-04-04T23:20:24.147Z,6.00
2023-04-04T23:23:27.505Z,6.07
2023-04-04T23:26:32.596Z,8.13
2023-04-04T23:29:36.039Z,6.13
2023-04-04T23:32:39.700Z,4.70
2023-04-04T23:35:43.149Z,7.05
2023-04-04T23:38:46.607Z,7.75
2023-04-04T23:41:49.967Z,6.10
2023-04-04T23:44:53.378Z,6.60
2023-04-04T23:47:56.607Z,6.93
2023-04-04T23:51:01.830Z,7.40
2023-04-04T23:54:09.220Z,6.87
2023-04-04T23:57:12.423Z,8.38
